sensor_id;sensor_type;location;lat;lon;timestamp;P1;durP1;ratioP1;P2;durP2;ratioP2
11777;SDS011;5946;51.770;8.548;2022-10-13T00:00:13;22.73;;;16.00;;
11777;SDS011;5946;51.770;8.548;2022-10-13T00:02:39;26.63;;;16.43;;
11777;SDS011;5946;51.770;8.548;2022-10-13T00:05:05;30.20;;;17.40;;
11777;SDS011;5946;51.770;8.548;2022-10-13T00:07:32;25.40;;;15.90;;
11777;SDS011;5946;51.770;8.548;2022-10-13T00:09:58;25.67;;;16.13;;
11777;SDS011;5946;51.770;8.548;2022-10-13T00:12:24;28.60;;;17.90;;
11777;SDS011;5946;51.770;8.548;2022-10-13T00:14:49;28.90;;;17.67;;
11777;SDS011;5946;51.770;8.548;2022-10-13T00:17:15;26.57;;;17.87;;
11777;SDS011;5946;51.770;8.548;2022-10-13T00:19:41;25.37;;;17.40;;
11777;SDS011;5946;51.770;8.548;2022-10-13T00:22:07;27.53;;;18.33;;
11777;SDS011;5946;51.770;8.548;2022-10-13T00:24:33;29.77;;;17.67;;
11777;SDS011;5946;51.770;8.548;2022-10-13T00:26:59;29.83;;;18.57;;
11777;SDS011;5946;51.770;8.548;2022-10-13T00:29:25;26.23;;;17.90;;
11777;SDS011;5946;51.770;8.548;2022-10-13T00:31:51;33.83;;;19.97;;
11777;SDS011;5946;51.770;8.548;2022-10-13T00:34:17;30.37;;;19.30;;
11777;SDS011;5946;51.770;8.548;2022-10-13T00:36:43;31.10;;;20.83;;
11777;SDS011;5946;51.770;8.548;2022-10-13T00:39:09;35.20;;;22.57;;
11777;SDS011;5946;51.770;8.548;2022-10-13T00:41:35;37.93;;;22.13;;
11777;SDS011;5946;51.770;8.548;2022-10-13T00:44:03;34.70;;;20.30;;
11777;SDS011;5946;51.770;8.548;2022-10-13T00:46:30;37.97;;;22.67;;
11777;SDS011;5946;51.770;8.548;2022-10-13T00:48:58;39.60;;;23.87;;
11777;SDS011;5946;51.770;8.548;2022-10-13T00:51:25;39.77;;;23.90;;
11777;SDS011;5946;51.770;8.548;2022-10-13T00:53:52;41.37;;;24.57;;
11777;SDS011;5946;51.770;8.548;2022-10-13T00:56:20;40.20;;;22.27;;
11777;SDS011;5946;51.770;8.548;2022-10-13T00:58:46;35.00;;;22.83;;
11777;SDS011;5946;51.770;8.548;2022-10-13T01:01:13;29.70;;;20.57;;
11777;SDS011;5946;51.770;8.548;2022-10-13T01:03:39;32.63;;;20.47;;
11777;SDS011;5946;51.770;8.548;2022-10-13T01:06:05;29.10;;;19.90;;
11777;SDS011;5946;51.770;8.548;2022-10-13T01:08:31;29.93;;;19.03;;
11777;SDS011;5946;51.770;8.548;2022-10-13T01:28:38;28.50;;;20.00;;
11777;SDS011;5946;51.770;8.548;2022-10-13T01:31:19;33.23;;;20.17;;
11777;SDS011;5946;51.770;8.548;2022-10-13T01:33:53;28.57;;;20.07;;
11777;SDS011;5946;51.770;8.548;2022-10-13T01:38:51;36.73;;;21.40;;
11777;SDS011;5946;51.770;8.548;2022-10-13T01:41:32;38.13;;;22.07;;
11777;SDS011;5946;51.770;8.548;2022-10-13T01:44:11;36.37;;;21.60;;
11777;SDS011;5946;51.770;8.548;2022-10-13T01:46:40;36.03;;;21.93;;
11777;SDS011;5946;51.770;8.548;2022-10-13T01:49:11;31.90;;;21.27;;
11777;SDS011;5946;51.770;8.548;2022-10-13T01:51:39;31.20;;;20.13;;
11777;SDS011;5946;51.770;8.548;2022-10-13T01:54:05;36.50;;;23.17;;
11777;SDS011;5946;51.770;8.548;2022-10-13T01:56:31;35.50;;;22.53;;
11777;SDS011;5946;51.770;8.548;2022-10-13T01:58:58;32.63;;;20.70;;
11777;SDS011;5946;51.770;8.548;2022-10-13T02:03:56;33.67;;;21.27;;
11777;SDS011;5946;51.770;8.548;2022-10-13T02:06:28;33.03;;;21.00;;
11777;SDS011;5946;51.770;8.548;2022-10-13T02:09:02;34.23;;;20.73;;
11777;SDS011;5946;51.770;8.548;2022-10-13T02:11:29;31.80;;;20.47;;
11777;SDS011;5946;51.770;8.548;2022-10-13T02:13:58;34.57;;;21.30;;
11777;SDS011;5946;51.770;8.548;2022-10-13T02:16:27;29.40;;;21.33;;
11777;SDS011;5946;51.770;8.548;2022-10-13T02:18:54;39.97;;;22.67;;
11777;SDS011;5946;51.770;8.548;2022-10-13T02:21:21;34.53;;;21.57;;
11777;SDS011;5946;51.770;8.548;2022-10-13T02:23:47;38.50;;;21.47;;
11777;SDS011;5946;51.770;8.548;2022-10-13T02:26:13;30.07;;;19.13;;
11777;SDS011;5946;51.770;8.548;2022-10-13T02:28:39;30.80;;;19.87;;
11777;SDS011;5946;51.770;8.548;2022-10-13T02:31:06;32.63;;;19.67;;
11777;SDS011;5946;51.770;8.548;2022-10-13T02:33:32;35.20;;;21.37;;
11777;SDS011;5946;51.770;8.548;2022-10-13T02:35:58;33.30;;;20.67;;
11777;SDS011;5946;51.770;8.548;2022-10-13T02:38:24;32.03;;;21.03;;
11777;SDS011;5946;51.770;8.548;2022-10-13T02:40:50;32.00;;;21.03;;
11777;SDS011;5946;51.770;8.548;2022-10-13T02:43:18;34.07;;;21.43;;
11777;SDS011;5946;51.770;8.548;2022-10-13T02:45:44;35.50;;;20.57;;
11777;SDS011;5946;51.770;8.548;2022-10-13T02:48:10;30.80;;;19.57;;
11777;SDS011;5946;51.770;8.548;2022-10-13T02:50:36;34.37;;;20.73;;
11777;SDS011;5946;51.770;8.548;2022-10-13T02:53:02;31.80;;;20.47;;
11777;SDS011;5946;51.770;8.548;2022-10-13T02:55:28;31.37;;;20.63;;
11777;SDS011;5946;51.770;8.548;2022-10-13T02:57:54;37.47;;;20.37;;
11777;SDS011;5946;51.770;8.548;2022-10-13T03:00:20;33.50;;;19.63;;
11777;SDS011;5946;51.770;8.548;2022-10-13T03:02:46;29.13;;;19.17;;
11777;SDS011;5946;51.770;8.548;2022-10-13T03:05:12;33.67;;;20.30;;
11777;SDS011;5946;51.770;8.548;2022-10-13T03:07:38;30.43;;;20.63;;
11777;SDS011;5946;51.770;8.548;2022-10-13T03:10:04;32.27;;;20.20;;
11777;SDS011;5946;51.770;8.548;2022-10-13T03:12:30;32.33;;;20.60;;
11777;SDS011;5946;51.770;8.548;2022-10-13T03:14:56;33.03;;;20.57;;
11777;SDS011;5946;51.770;8.548;2022-10-13T03:17:22;35.40;;;21.20;;
11777;SDS011;5946;51.770;8.548;2022-10-13T03:19:48;33.87;;;20.53;;
11777;SDS011;5946;51.770;8.548;2022-10-13T03:22:14;34.70;;;21.20;;
11777;SDS011;5946;51.770;8.548;2022-10-13T03:24:41;35.10;;;21.53;;
11777;SDS011;5946;51.770;8.548;2022-10-13T03:27:07;34.07;;;19.97;;
11777;SDS011;5946;51.770;8.548;2022-10-13T03:29:33;35.97;;;20.57;;
11777;SDS011;5946;51.770;8.548;2022-10-13T03:31:59;36.30;;;21.17;;
11777;SDS011;5946;51.770;8.548;2022-10-13T03:34:25;33.67;;;20.47;;
11777;SDS011;5946;51.770;8.548;2022-10-13T03:36:51;38.07;;;21.53;;
11777;SDS011;5946;51.770;8.548;2022-10-13T03:39:17;36.17;;;21.03;;
11777;SDS011;5946;51.770;8.548;2022-10-13T03:41:43;36.33;;;21.83;;
11777;SDS011;5946;51.770;8.548;2022-10-13T03:44:10;39.33;;;22.27;;
11777;SDS011;5946;51.770;8.548;2022-10-13T03:46:37;37.60;;;22.90;;
11777;SDS011;5946;51.770;8.548;2022-10-13T03:49:03;35.23;;;21.60;;
11777;SDS011;5946;51.770;8.548;2022-10-13T03:51:29;34.13;;;20.90;;
11777;SDS011;5946;51.770;8.548;2022-10-13T03:53:55;39.43;;;21.70;;
11777;SDS011;5946;51.770;8.548;2022-10-13T03:56:22;37.23;;;22.87;;
11777;SDS011;5946;51.770;8.548;2022-10-13T03:58:49;37.30;;;20.80;;
11777;SDS011;5946;51.770;8.548;2022-10-13T04:01:18;33.10;;;20.07;;
11777;SDS011;5946;51.770;8.548;2022-10-13T04:03:44;39.93;;;22.23;;
11777;SDS011;5946;51.770;8.548;2022-10-13T04:06:10;31.80;;;20.73;;
11777;SDS011;5946;51.770;8.548;2022-10-13T04:08:36;32.50;;;20.60;;
11777;SDS011;5946;51.770;8.548;2022-10-13T04:11:06;34.97;;;21.00;;
11777;SDS011;5946;51.770;8.548;2022-10-13T04:13:33;40.20;;;22.87;;
11777;SDS011;5946;51.770;8.548;2022-10-13T04:16:06;36.40;;;22.40;;
11777;SDS011;5946;51.770;8.548;2022-10-13T04:18:32;34.93;;;22.17;;
11777;SDS011;5946;51.770;8.548;2022-10-13T04:20:58;43.97;;;22.03;;
11777;SDS011;5946;51.770;8.548;2022-10-13T04:23:24;38.90;;;22.17;;
11777;SDS011;5946;51.770;8.548;2022-10-13T04:25:51;35.50;;;22.17;;
11777;SDS011;5946;51.770;8.548;2022-10-13T04:28:17;51.67;;;24.93;;
11777;SDS011;5946;51.770;8.548;2022-10-13T04:30:42;41.77;;;23.60;;
11777;SDS011;5946;51.770;8.548;2022-10-13T04:33:08;47.07;;;25.40;;
11777;SDS011;5946;51.770;8.548;2022-10-13T04:35:38;45.90;;;25.50;;
11777;SDS011;5946;51.770;8.548;2022-10-13T04:38:05;42.80;;;26.10;;
11777;SDS011;5946;51.770;8.548;2022-10-13T04:40:31;49.60;;;25.97;;
11777;SDS011;5946;51.770;8.548;2022-10-13T04:42:57;44.93;;;25.67;;
11777;SDS011;5946;51.770;8.548;2022-10-13T04:45:23;45.20;;;24.70;;
11777;SDS011;5946;51.770;8.548;2022-10-13T04:47:49;40.00;;;23.60;;
11777;SDS011;5946;51.770;8.548;2022-10-13T04:50:15;41.40;;;24.63;;
11777;SDS011;5946;51.770;8.548;2022-10-13T04:52:41;39.27;;;24.20;;
11777;SDS011;5946;51.770;8.548;2022-10-13T04:55:07;38.10;;;23.73;;
11777;SDS011;5946;51.770;8.548;2022-10-13T04:57:33;43.40;;;25.87;;
11777;SDS011;5946;51.770;8.548;2022-10-13T04:59:59;37.53;;;23.50;;
11777;SDS011;5946;51.770;8.548;2022-10-13T05:02:25;40.63;;;23.90;;
11777;SDS011;5946;51.770;8.548;2022-10-13T05:04:51;44.83;;;25.30;;
11777;SDS011;5946;51.770;8.548;2022-10-13T05:07:17;38.67;;;23.00;;
11777;SDS011;5946;51.770;8.548;2022-10-13T05:09:43;39.33;;;23.73;;
11777;SDS011;5946;51.770;8.548;2022-10-13T05:12:09;44.17;;;24.50;;
11777;SDS011;5946;51.770;8.548;2022-10-13T05:14:35;36.03;;;23.20;;
11777;SDS011;5946;51.770;8.548;2022-10-13T05:17:01;43.57;;;25.60;;
11777;SDS011;5946;51.770;8.548;2022-10-13T05:19:27;43.50;;;24.97;;
11777;SDS011;5946;51.770;8.548;2022-10-13T05:21:53;43.17;;;26.17;;
11777;SDS011;5946;51.770;8.548;2022-10-13T05:24:19;46.73;;;24.43;;
11777;SDS011;5946;51.770;8.548;2022-10-13T05:26:54;40.00;;;23.67;;
11777;SDS011;5946;51.770;8.548;2022-10-13T05:29:20;45.67;;;25.43;;
11777;SDS011;5946;51.770;8.548;2022-10-13T05:31:46;41.57;;;24.23;;
11777;SDS011;5946;51.770;8.548;2022-10-13T05:34:12;47.93;;;25.57;;
11777;SDS011;5946;51.770;8.548;2022-10-13T05:36:38;39.40;;;24.30;;
11777;SDS011;5946;51.770;8.548;2022-10-13T05:39:05;42.30;;;24.07;;
11777;SDS011;5946;51.770;8.548;2022-10-13T05:41:32;43.70;;;24.17;;
11777;SDS011;5946;51.770;8.548;2022-10-13T05:43:59;41.73;;;23.37;;
11777;SDS011;5946;51.770;8.548;2022-10-13T05:46:25;40.67;;;23.90;;
11777;SDS011;5946;51.770;8.548;2022-10-13T05:48:52;38.30;;;23.50;;
11777;SDS011;5946;51.770;8.548;2022-10-13T05:51:19;42.33;;;23.23;;
11777;SDS011;5946;51.770;8.548;2022-10-13T05:53:51;37.67;;;22.77;;
11777;SDS011;5946;51.770;8.548;2022-10-13T05:56:18;44.13;;;22.43;;
11777;SDS011;5946;51.770;8.548;2022-10-13T05:58:47;39.87;;;22.70;;
11777;SDS011;5946;51.770;8.548;2022-10-13T06:01:15;32.43;;;21.60;;
11777;SDS011;5946;51.770;8.548;2022-10-13T06:03:42;35.47;;;22.17;;
11777;SDS011;5946;51.770;8.548;2022-10-13T06:06:09;38.10;;;21.93;;
11777;SDS011;5946;51.770;8.548;2022-10-13T06:08:35;34.20;;;21.53;;
11777;SDS011;5946;51.770;8.548;2022-10-13T06:11:02;32.17;;;21.40;;
11777;SDS011;5946;51.770;8.548;2022-10-13T06:13:28;35.63;;;20.50;;
11777;SDS011;5946;51.770;8.548;2022-10-13T06:15:54;36.97;;;21.17;;
11777;SDS011;5946;51.770;8.548;2022-10-13T06:18:20;36.63;;;21.90;;
11777;SDS011;5946;51.770;8.548;2022-10-13T06:20:46;33.97;;;21.33;;
11777;SDS011;5946;51.770;8.548;2022-10-13T06:23:12;39.07;;;21.70;;
11777;SDS011;5946;51.770;8.548;2022-10-13T06:25:45;34.87;;;20.70;;
11777;SDS011;5946;51.770;8.548;2022-10-13T06:28:11;33.70;;;20.33;;
11777;SDS011;5946;51.770;8.548;2022-10-13T06:30:37;31.67;;;20.57;;
11777;SDS011;5946;51.770;8.548;2022-10-13T06:33:03;31.07;;;19.33;;
11777;SDS011;5946;51.770;8.548;2022-10-13T06:35:29;32.13;;;20.40;;
11777;SDS011;5946;51.770;8.548;2022-10-13T06:37:55;31.60;;;20.03;;
11777;SDS011;5946;51.770;8.548;2022-10-13T06:40:22;29.03;;;18.03;;
11777;SDS011;5946;51.770;8.548;2022-10-13T06:42:48;33.10;;;19.53;;
11777;SDS011;5946;51.770;8.548;2022-10-13T06:45:14;31.60;;;18.87;;
11777;SDS011;5946;51.770;8.548;2022-10-13T06:47:41;35.30;;;19.47;;
11777;SDS011;5946;51.770;8.548;2022-10-13T06:50:07;30.37;;;19.00;;
11777;SDS011;5946;51.770;8.548;2022-10-13T06:52:33;29.30;;;18.93;;
11777;SDS011;5946;51.770;8.548;2022-10-13T06:54:59;37.63;;;19.53;;
11777;SDS011;5946;51.770;8.548;2022-10-13T06:57:24;26.03;;;17.97;;
11777;SDS011;5946;51.770;8.548;2022-10-13T06:59:50;34.90;;;18.80;;
11777;SDS011;5946;51.770;8.548;2022-10-13T07:02:17;30.00;;;17.83;;
11777;SDS011;5946;51.770;8.548;2022-10-13T07:04:43;29.63;;;18.13;;
11777;SDS011;5946;51.770;8.548;2022-10-13T07:07:09;29.60;;;18.60;;
11777;SDS011;5946;51.770;8.548;2022-10-13T07:09:35;28.27;;;18.10;;
11777;SDS011;5946;51.770;8.548;2022-10-13T07:12:01;32.73;;;18.23;;
11777;SDS011;5946;51.770;8.548;2022-10-13T07:14:27;30.00;;;18.07;;
11777;SDS011;5946;51.770;8.548;2022-10-13T07:16:53;27.17;;;17.93;;
11777;SDS011;5946;51.770;8.548;2022-10-13T07:19:19;27.80;;;17.43;;
11777;SDS011;5946;51.770;8.548;2022-10-13T07:21:45;28.93;;;17.30;;
11777;SDS011;5946;51.770;8.548;2022-10-13T07:24:11;23.30;;;16.53;;
11777;SDS011;5946;51.770;8.548;2022-10-13T07:26:37;28.33;;;16.90;;
11777;SDS011;5946;51.770;8.548;2022-10-13T07:29:03;22.83;;;16.27;;
11777;SDS011;5946;51.770;8.548;2022-10-13T07:31:29;29.60;;;17.10;;
11777;SDS011;5946;51.770;8.548;2022-10-13T07:33:57;23.37;;;15.97;;
11777;SDS011;5946;51.770;8.548;2022-10-13T07:36:23;24.80;;;15.63;;
11777;SDS011;5946;51.770;8.548;2022-10-13T07:38:49;23.53;;;15.33;;
11777;SDS011;5946;51.770;8.548;2022-10-13T07:41:15;21.53;;;14.63;;
11777;SDS011;5946;51.770;8.548;2022-10-13T07:43:41;24.53;;;15.33;;
11777;SDS011;5946;51.770;8.548;2022-10-13T07:46:07;24.17;;;15.07;;
11777;SDS011;5946;51.770;8.548;2022-10-13T07:48:34;25.20;;;14.37;;
11777;SDS011;5946;51.770;8.548;2022-10-13T07:51:08;24.57;;;14.00;;
11777;SDS011;5946;51.770;8.548;2022-10-13T07:53:34;21.13;;;13.83;;
11777;SDS011;5946;51.770;8.548;2022-10-13T07:56:00;19.77;;;13.30;;
11777;SDS011;5946;51.770;8.548;2022-10-13T07:58:27;18.83;;;13.53;;
11777;SDS011;5946;51.770;8.548;2022-10-13T08:00:56;22.80;;;14.03;;
11777;SDS011;5946;51.770;8.548;2022-10-13T08:03:22;24.83;;;14.90;;
11777;SDS011;5946;51.770;8.548;2022-10-13T08:05:48;17.60;;;13.57;;
11777;SDS011;5946;51.770;8.548;2022-10-13T08:08:14;21.77;;;14.10;;
11777;SDS011;5946;51.770;8.548;2022-10-13T08:10:40;20.87;;;13.20;;
11777;SDS011;5946;51.770;8.548;2022-10-13T08:13:06;21.53;;;12.50;;
11777;SDS011;5946;51.770;8.548;2022-10-13T08:15:32;18.47;;;12.20;;
11777;SDS011;5946;51.770;8.548;2022-10-13T08:17:58;18.87;;;12.70;;
11777;SDS011;5946;51.770;8.548;2022-10-13T08:20:24;17.53;;;11.97;;
11777;SDS011;5946;51.770;8.548;2022-10-13T08:22:50;18.13;;;12.27;;
11777;SDS011;5946;51.770;8.548;2022-10-13T08:25:16;16.80;;;12.37;;
11777;SDS011;5946;51.770;8.548;2022-10-13T08:27:42;20.40;;;12.00;;
11777;SDS011;5946;51.770;8.548;2022-10-13T08:30:08;23.50;;;13.20;;
11777;SDS011;5946;51.770;8.548;2022-10-13T08:32:34;19.90;;;12.63;;
11777;SDS011;5946;51.770;8.548;2022-10-13T08:35:00;19.80;;;11.70;;
11777;SDS011;5946;51.770;8.548;2022-10-13T08:37:26;18.30;;;11.87;;
11777;SDS011;5946;51.770;8.548;2022-10-13T08:39:54;23.17;;;12.77;;
11777;SDS011;5946;51.770;8.548;2022-10-13T08:42:21;20.13;;;12.53;;
11777;SDS011;5946;51.770;8.548;2022-10-13T08:44:48;24.80;;;12.67;;
11777;SDS011;5946;51.770;8.548;2022-10-13T08:47:23;24.43;;;13.73;;
11777;SDS011;5946;51.770;8.548;2022-10-13T08:49:56;17.67;;;11.70;;
11777;SDS011;5946;51.770;8.548;2022-10-13T08:52:27;19.30;;;13.10;;
11777;SDS011;5946;51.770;8.548;2022-10-13T08:54:53;18.77;;;12.80;;
11777;SDS011;5946;51.770;8.548;2022-10-13T08:57:20;14.73;;;11.23;;
11777;SDS011;5946;51.770;8.548;2022-10-13T08:59:46;25.90;;;12.67;;
11777;SDS011;5946;51.770;8.548;2022-10-13T09:02:28;17.03;;;11.70;;
11777;SDS011;5946;51.770;8.548;2022-10-13T09:04:55;18.43;;;11.77;;
11777;SDS011;5946;51.770;8.548;2022-10-13T09:07:23;20.53;;;10.67;;
11777;SDS011;5946;51.770;8.548;2022-10-13T09:09:51;21.43;;;10.60;;
11777;SDS011;5946;51.770;8.548;2022-10-13T09:12:18;16.80;;;9.90;;
11777;SDS011;5946;51.770;8.548;2022-10-13T09:17:24;12.23;;;8.13;;
11777;SDS011;5946;51.770;8.548;2022-10-13T09:22:30;16.23;;;8.27;;
11777;SDS011;5946;51.770;8.548;2022-10-13T09:35:29;12.53;;;6.80;;
11777;SDS011;5946;51.770;8.548;2022-10-13T09:38:05;10.93;;;6.20;;
11777;SDS011;5946;51.770;8.548;2022-10-13T09:40:32;12.80;;;6.30;;
11777;SDS011;5946;51.770;8.548;2022-10-13T09:43:00;15.40;;;7.03;;
11777;SDS011;5946;51.770;8.548;2022-10-13T09:45:29;11.53;;;6.70;;
11777;SDS011;5946;51.770;8.548;2022-10-13T09:48:02;12.20;;;6.40;;
11777;SDS011;5946;51.770;8.548;2022-10-13T09:50:33;9.87;;;5.67;;
11777;SDS011;5946;51.770;8.548;2022-10-13T09:55:45;10.13;;;5.50;;
11777;SDS011;5946;51.770;8.548;2022-10-13T09:58:18;9.60;;;5.70;;
11777;SDS011;5946;51.770;8.548;2022-10-13T10:00:48;9.43;;;5.77;;
11777;SDS011;5946;51.770;8.548;2022-10-13T10:03:25;12.63;;;5.83;;
11777;SDS011;5946;51.770;8.548;2022-10-13T10:05:56;12.07;;;6.10;;
11777;SDS011;5946;51.770;8.548;2022-10-13T10:10:55;10.63;;;5.47;;
11777;SDS011;5946;51.770;8.548;2022-10-13T10:13:25;10.40;;;5.47;;
11777;SDS011;5946;51.770;8.548;2022-10-13T10:15:59;10.80;;;5.67;;
11777;SDS011;5946;51.770;8.548;2022-10-13T10:21:07;14.47;;;5.10;;
11777;SDS011;5946;51.770;8.548;2022-10-13T10:23:37;9.37;;;5.77;;
11777;SDS011;5946;51.770;8.548;2022-10-13T10:26:07;9.87;;;5.00;;
11777;SDS011;5946;51.770;8.548;2022-10-13T10:36:21;10.43;;;5.23;;
11777;SDS011;5946;51.770;8.548;2022-10-13T10:38:55;11.50;;;5.40;;
11777;SDS011;5946;51.770;8.548;2022-10-13T10:43:58;13.37;;;5.53;;
11777;SDS011;5946;51.770;8.548;2022-10-13T10:46:30;11.33;;;5.40;;
11777;SDS011;5946;51.770;8.548;2022-10-13T10:48:59;11.33;;;5.77;;
11777;SDS011;5946;51.770;8.548;2022-10-13T10:51:30;10.43;;;5.63;;
11777;SDS011;5946;51.770;8.548;2022-10-13T10:58:57;12.57;;;5.30;;
11777;SDS011;5946;51.770;8.548;2022-10-13T11:01:27;12.43;;;6.77;;
11777;SDS011;5946;51.770;8.548;2022-10-13T11:03:57;14.40;;;5.90;;
11777;SDS011;5946;51.770;8.548;2022-10-13T11:06:33;12.07;;;5.93;;
11777;SDS011;5946;51.770;8.548;2022-10-13T11:09:01;12.57;;;5.63;;
11777;SDS011;5946;51.770;8.548;2022-10-13T11:11:28;11.67;;;5.67;;
11777;SDS011;5946;51.770;8.548;2022-10-13T11:13:56;14.87;;;5.97;;
11777;SDS011;5946;51.770;8.548;2022-10-13T11:16:27;10.40;;;5.93;;
11777;SDS011;5946;51.770;8.548;2022-10-13T11:18:55;16.17;;;5.30;;
11777;SDS011;5946;51.770;8.548;2022-10-13T11:21:23;7.97;;;5.03;;
11777;SDS011;5946;51.770;8.548;2022-10-13T11:23:50;8.70;;;5.10;;
11777;SDS011;5946;51.770;8.548;2022-10-13T11:26:29;9.20;;;5.57;;
11777;SDS011;5946;51.770;8.548;2022-10-13T11:28:56;13.07;;;6.10;;
11777;SDS011;5946;51.770;8.548;2022-10-13T11:31:24;12.37;;;5.10;;
11777;SDS011;5946;51.770;8.548;2022-10-13T11:41:35;12.23;;;6.30;;
11777;SDS011;5946;51.770;8.548;2022-10-13T11:44:19;14.50;;;5.90;;
11777;SDS011;5946;51.770;8.548;2022-10-13T11:49:18;13.60;;;5.47;;
11777;SDS011;5946;51.770;8.548;2022-10-13T11:56:53;15.00;;;5.37;;
11777;SDS011;5946;51.770;8.548;2022-10-13T11:59:24;13.43;;;5.00;;
11777;SDS011;5946;51.770;8.548;2022-10-13T12:01:58;9.60;;;4.33;;
11777;SDS011;5946;51.770;8.548;2022-10-13T12:04:25;12.50;;;5.53;;
11777;SDS011;5946;51.770;8.548;2022-10-13T12:06:58;17.40;;;5.60;;
11777;SDS011;5946;51.770;8.548;2022-10-13T12:09:25;7.17;;;4.40;;
11777;SDS011;5946;51.770;8.548;2022-10-13T12:14:58;11.87;;;4.60;;
11777;SDS011;5946;51.770;8.548;2022-10-13T12:17:21;11.50;;;4.93;;
11777;SDS011;5946;51.770;8.548;2022-10-13T12:19:49;11.50;;;4.40;;
11777;SDS011;5946;51.770;8.548;2022-10-13T12:22:15;9.50;;;4.50;;
11777;SDS011;5946;51.770;8.548;2022-10-13T12:24:42;11.57;;;4.90;;
11777;SDS011;5946;51.770;8.548;2022-10-13T12:27:21;9.90;;;4.77;;
11777;SDS011;5946;51.770;8.548;2022-10-13T12:29:46;11.17;;;5.00;;
11777;SDS011;5946;51.770;8.548;2022-10-13T12:32:23;10.30;;;5.33;;
11777;SDS011;5946;51.770;8.548;2022-10-13T12:34:49;11.20;;;5.30;;
11777;SDS011;5946;51.770;8.548;2022-10-13T12:39:55;9.90;;;4.80;;
11777;SDS011;5946;51.770;8.548;2022-10-13T12:42:23;13.73;;;5.57;;
11777;SDS011;5946;51.770;8.548;2022-10-13T12:44:51;10.93;;;5.53;;
11777;SDS011;5946;51.770;8.548;2022-10-13T12:47:36;11.50;;;5.10;;
11777;SDS011;5946;51.770;8.548;2022-10-13T12:52:51;10.00;;;4.90;;
11777;SDS011;5946;51.770;8.548;2022-10-13T12:55:18;12.10;;;4.57;;
11777;SDS011;5946;51.770;8.548;2022-10-13T12:57:46;8.53;;;4.67;;
11777;SDS011;5946;51.770;8.548;2022-10-13T13:02:51;10.00;;;4.37;;
11777;SDS011;5946;51.770;8.548;2022-10-13T13:08:04;13.70;;;5.10;;
11777;SDS011;5946;51.770;8.548;2022-10-13T13:10:30;8.37;;;4.93;;
11777;SDS011;5946;51.770;8.548;2022-10-13T13:13:12;7.87;;;4.00;;
11777;SDS011;5946;51.770;8.548;2022-10-13T13:15:38;11.03;;;4.10;;
11777;SDS011;5946;51.770;8.548;2022-10-13T13:18:21;8.13;;;4.57;;
11777;SDS011;5946;51.770;8.548;2022-10-13T13:20:48;7.70;;;4.60;;
11777;SDS011;5946;51.770;8.548;2022-10-13T13:23:14;8.90;;;4.60;;
11777;SDS011;5946;51.770;8.548;2022-10-13T13:25:44;7.63;;;4.50;;
11777;SDS011;5946;51.770;8.548;2022-10-13T13:28:14;10.83;;;4.73;;
11777;SDS011;5946;51.770;8.548;2022-10-13T13:30:40;12.43;;;4.67;;
11777;SDS011;5946;51.770;8.548;2022-10-13T13:33:09;7.60;;;4.93;;
11777;SDS011;5946;51.770;8.548;2022-10-13T13:35:35;8.93;;;4.77;;
11777;SDS011;5946;51.770;8.548;2022-10-13T13:38:02;15.13;;;5.23;;
11777;SDS011;5946;51.770;8.548;2022-10-13T13:40:29;7.50;;;5.13;;
11777;SDS011;5946;51.770;8.548;2022-10-13T13:42:55;6.07;;;4.87;;
11777;SDS011;5946;51.770;8.548;2022-10-13T13:45:22;9.53;;;5.00;;
11777;SDS011;5946;51.770;8.548;2022-10-13T13:47:50;9.07;;;4.97;;
11777;SDS011;5946;51.770;8.548;2022-10-13T13:52:42;8.57;;;4.90;;
11777;SDS011;5946;51.770;8.548;2022-10-13T13:55:08;10.73;;;4.57;;
11777;SDS011;5946;51.770;8.548;2022-10-13T13:57:34;13.00;;;4.70;;
11777;SDS011;5946;51.770;8.548;2022-10-13T13:59:59;9.47;;;4.63;;
11777;SDS011;5946;51.770;8.548;2022-10-13T14:02:25;10.93;;;5.03;;
11777;SDS011;5946;51.770;8.548;2022-10-13T14:04:50;10.63;;;4.83;;
11777;SDS011;5946;51.770;8.548;2022-10-13T14:07:17;12.13;;;4.70;;
11777;SDS011;5946;51.770;8.548;2022-10-13T14:09:43;10.57;;;4.90;;
11777;SDS011;5946;51.770;8.548;2022-10-13T14:12:09;10.63;;;5.17;;
11777;SDS011;5946;51.770;8.548;2022-10-13T14:14:35;8.23;;;5.23;;
11777;SDS011;5946;51.770;8.548;2022-10-13T14:17:02;19.10;;;5.40;;
11777;SDS011;5946;51.770;8.548;2022-10-13T14:19:30;12.83;;;5.37;;
11777;SDS011;5946;51.770;8.548;2022-10-13T14:21:56;15.27;;;5.20;;
11777;SDS011;5946;51.770;8.548;2022-10-13T14:24:22;13.47;;;5.20;;
11777;SDS011;5946;51.770;8.548;2022-10-13T14:26:47;8.37;;;4.77;;
11777;SDS011;5946;51.770;8.548;2022-10-13T14:29:15;13.80;;;5.40;;
11777;SDS011;5946;51.770;8.548;2022-10-13T14:31:41;11.73;;;6.13;;
11777;SDS011;5946;51.770;8.548;2022-10-13T14:34:07;12.57;;;7.93;;
11777;SDS011;5946;51.770;8.548;2022-10-13T14:36:33;10.23;;;7.03;;
11777;SDS011;5946;51.770;8.548;2022-10-13T14:38:58;10.33;;;7.07;;
11777;SDS011;5946;51.770;8.548;2022-10-13T14:41:24;9.53;;;6.37;;
11777;SDS011;5946;51.770;8.548;2022-10-13T14:43:54;12.00;;;6.37;;
11777;SDS011;5946;51.770;8.548;2022-10-13T14:46:20;14.67;;;7.37;;
11777;SDS011;5946;51.770;8.548;2022-10-13T14:48:46;9.67;;;6.23;;
11777;SDS011;5946;51.770;8.548;2022-10-13T14:51:12;20.97;;;7.30;;
11777;SDS011;5946;51.770;8.548;2022-10-13T14:53:39;13.13;;;7.40;;
11777;SDS011;5946;51.770;8.548;2022-10-13T14:56:20;12.83;;;7.30;;
11777;SDS011;5946;51.770;8.548;2022-10-13T14:58:48;13.73;;;6.77;;
11777;SDS011;5946;51.770;8.548;2022-10-13T15:01:15;10.53;;;6.20;;
11777;SDS011;5946;51.770;8.548;2022-10-13T15:03:41;8.23;;;5.90;;
11777;SDS011;5946;51.770;8.548;2022-10-13T15:06:18;13.80;;;5.97;;
11777;SDS011;5946;51.770;8.548;2022-10-13T15:08:45;9.93;;;5.67;;
11777;SDS011;5946;51.770;8.548;2022-10-13T15:11:11;10.87;;;5.93;;
11777;SDS011;5946;51.770;8.548;2022-10-13T15:13:37;8.90;;;5.50;;
11777;SDS011;5946;51.770;8.548;2022-10-13T15:16:03;9.50;;;6.57;;
11777;SDS011;5946;51.770;8.548;2022-10-13T15:18:30;11.83;;;5.97;;
11777;SDS011;5946;51.770;8.548;2022-10-13T15:20:56;13.70;;;6.13;;
11777;SDS011;5946;51.770;8.548;2022-10-13T15:23:22;11.27;;;6.20;;
11777;SDS011;5946;51.770;8.548;2022-10-13T15:25:51;12.77;;;6.83;;
11777;SDS011;5946;51.770;8.548;2022-10-13T15:28:22;12.20;;;7.03;;
11777;SDS011;5946;51.770;8.548;2022-10-13T15:30:48;11.20;;;6.97;;
11777;SDS011;5946;51.770;8.548;2022-10-13T15:33:14;16.67;;;7.50;;
11777;SDS011;5946;51.770;8.548;2022-10-13T15:35:40;11.80;;;7.33;;
11777;SDS011;5946;51.770;8.548;2022-10-13T15:38:05;12.03;;;6.77;;
11777;SDS011;5946;51.770;8.548;2022-10-13T15:40:31;13.87;;;7.20;;
11777;SDS011;5946;51.770;8.548;2022-10-13T15:42:57;21.87;;;8.17;;
11777;SDS011;5946;51.770;8.548;2022-10-13T15:45:23;12.63;;;8.13;;
11777;SDS011;5946;51.770;8.548;2022-10-13T15:47:50;12.80;;;7.90;;
11777;SDS011;5946;51.770;8.548;2022-10-13T15:50:15;15.47;;;8.97;;
11777;SDS011;5946;51.770;8.548;2022-10-13T15:52:42;15.83;;;9.30;;
11777;SDS011;5946;51.770;8.548;2022-10-13T15:55:09;17.57;;;8.90;;
11777;SDS011;5946;51.770;8.548;2022-10-13T15:57:35;17.03;;;9.23;;
11777;SDS011;5946;51.770;8.548;2022-10-13T16:00:03;16.93;;;9.13;;
11777;SDS011;5946;51.770;8.548;2022-10-13T16:02:29;15.90;;;8.87;;
11777;SDS011;5946;51.770;8.548;2022-10-13T16:04:55;14.60;;;9.50;;
11777;SDS011;5946;51.770;8.548;2022-10-13T16:07:22;17.20;;;10.17;;
11777;SDS011;5946;51.770;8.548;2022-10-13T16:09:48;14.93;;;10.20;;
11777;SDS011;5946;51.770;8.548;2022-10-13T16:12:13;12.07;;;10.17;;
11777;SDS011;5946;51.770;8.548;2022-10-13T16:14:39;15.90;;;10.00;;